createdAt,value
2022-10-05T00:00:02.040Z,90.58
2022-10-05T00:01:01.961Z,90.47
2022-10-05T00:02:02.972Z,90.37
2022-10-05T00:03:02.953Z,90.37
2022-10-05T00:04:02.959Z,90.17
2022-10-05T00:05:02.635Z,90.17
2022-10-05T00:06:02.587Z,90.27
2022-10-05T00:07:02.802Z,90.31
2022-10-05T00:08:02.981Z,90.00
2022-10-05T00:09:02.904Z,90.21
2022-10-05T00:10:02.801Z,90.11
2022-10-05T00:11:03.363Z,90.31
2022-10-05T00:12:02.034Z,90.21
2022-10-05T00:13:02.614Z,91.03
2022-10-05T00:14:02.450Z,90.92
2022-10-05T00:15:02.255Z,90.62
2022-10-05T00:16:02.413Z,90.62
2022-10-05T00:17:02.191Z,91.03
2022-10-05T00:18:02.488Z,90.62
2022-10-05T00:19:02.594Z,90.82
2022-10-05T00:20:02.122Z,90.62
2022-10-05T00:21:02.300Z,90.62
2022-10-05T00:22:01.919Z,90.52
2022-10-05T00:23:02.322Z,90.72
2022-10-05T00:24:02.237Z,90.41
2022-10-05T00:25:01.906Z,90.41
2022-10-05T00:26:02.419Z,90.21
2022-10-05T00:27:02.424Z,90.52
2022-10-05T00:28:02.224Z,90.41
2022-10-05T00:29:02.482Z,90.21
2022-10-05T00:30:02.302Z,90.21
2022-10-05T00:31:02.209Z,90.11
2022-10-05T00:32:02.636Z,90.05
2022-10-05T00:33:01.993Z,89.94
2022-10-05T00:34:02.609Z,90.05
2022-10-05T00:35:02.247Z,89.84
2022-10-05T00:36:02.133Z,89.84
2022-10-05T00:37:03.145Z,89.84
2022-10-05T00:38:03.045Z,89.74
2022-10-05T00:39:02.923Z,89.64
2022-10-05T00:40:02.836Z,90.25
2022-10-05T00:41:02.741Z,90.05
2022-10-05T00:42:02.316Z,90.56
2022-10-05T00:43:02.843Z,93.63
2022-10-05T00:44:02.274Z,91.48
2022-10-05T00:45:02.749Z,91.27
2022-10-05T00:46:02.728Z,90.77
2022-10-05T00:47:02.966Z,90.77
2022-10-05T00:48:02.755Z,90.56
2022-10-05T00:49:02.627Z,90.66
2022-10-05T00:50:02.682Z,90.36
2022-10-05T00:51:02.726Z,90.36
2022-10-05T00:52:02.651Z,90.25
2022-10-05T00:53:02.276Z,90.45
2022-10-05T00:54:02.217Z,90.45
2022-10-05T00:55:02.811Z,90.25
2022-10-05T00:56:02.571Z,90.36
2022-10-05T00:57:02.842Z,90.56
2022-10-05T00:58:02.523Z,90.66
2022-10-05T00:59:02.355Z,91.17
2022-10-05T01:00:02.216Z,90.97
2022-10-05T01:01:02.860Z,90.86
2022-10-05T01:02:02.550Z,90.81
2022-10-05T01:03:02.434Z,90.66
2022-10-05T01:04:02.307Z,90.60
2022-10-05T01:05:02.494Z,90.70
2022-10-05T01:06:02.346Z,90.50
2022-10-05T01:07:03.294Z,90.60
2022-10-05T01:08:03.121Z,90.50
2022-10-05T01:09:02.975Z,90.30
2022-10-05T01:10:02.788Z,90.19
2022-10-05T01:11:03.282Z,90.19
2022-10-05T01:12:02.626Z,90.09
2022-10-05T01:13:02.451Z,89.98
2022-10-05T01:14:02.978Z,89.89
2022-10-05T01:15:02.550Z,89.68
2022-10-05T01:16:02.937Z,89.78
2022-10-05T01:17:02.381Z,89.78
2022-10-05T01:18:02.324Z,89.58
2022-10-05T01:19:02.126Z,89.62
2022-10-05T01:20:02.600Z,89.72
2022-10-05T01:21:02.225Z,89.62
2022-10-05T01:22:02.718Z,89.51
2022-10-05T01:23:02.538Z,89.62
2022-10-05T01:24:02.626Z,89.62
2022-10-05T01:25:02.520Z,89.72
2022-10-05T01:26:02.620Z,89.72
2022-10-05T01:27:03.161Z,89.83
2022-10-05T01:28:03.042Z,89.83
2022-10-05T01:29:02.999Z,89.72
2022-10-05T01:30:02.834Z,89.62
2022-10-05T01:31:03.471Z,89.62
2022-10-05T01:32:02.853Z,89.56
2022-10-05T01:33:02.602Z,89.76
2022-10-05T01:34:05.782Z,89.66
2022-10-05T01:35:02.774Z,89.56
2022-10-05T01:36:02.590Z,89.56
2022-10-05T01:37:02.174Z,89.56
2022-10-05T01:38:02.599Z,89.45
2022-10-05T01:39:02.060Z,89.56
2022-10-05T01:40:02.460Z,89.45
2022-10-05T01:41:02.288Z,89.45
2022-10-05T01:42:02.784Z,89.45
2022-10-05T01:43:02.715Z,89.45
2022-10-05T01:44:02.450Z,89.45
2022-10-05T01:45:02.960Z,89.25
2022-10-05T01:46:02.570Z,89.36
2022-10-05T01:47:03.139Z,89.45
2022-10-05T01:48:02.966Z,89.66
2022-10-05T01:49:02.933Z,89.76
2022-10-05T01:50:03.055Z,89.66
2022-10-05T01:51:03.125Z,89.66
2022-10-05T01:52:02.606Z,89.66
2022-10-05T01:53:02.443Z,89.60
2022-10-05T01:54:02.279Z,89.90
2022-10-05T01:55:02.826Z,90.42
2022-10-05T01:56:02.470Z,91.14
2022-10-05T01:57:02.785Z,90.73
2022-10-05T01:58:02.651Z,90.52
2022-10-05T01:59:03.181Z,90.73
2022-10-05T02:00:02.670Z,90.93
2022-10-05T02:01:02.574Z,92.16
2022-10-05T02:02:02.191Z,92.06
2022-10-05T02:03:01.675Z,91.96
2022-10-05T02:04:02.248Z,91.65
2022-10-05T02:05:03.006Z,91.55
2022-10-05T02:06:02.239Z,91.75
2022-10-05T02:07:02.656Z,92.36
2022-10-05T02:08:02.187Z,92.47
2022-10-05T02:09:02.336Z,93.19
2022-10-05T02:10:02.182Z,93.49
2022-10-05T02:11:02.844Z,93.55
2022-10-05T02:12:02.267Z,93.04
2022-10-05T02:13:02.089Z,92.94
2022-10-05T02:14:01.675Z,93.29
2022-10-05T02:15:02.030Z,92.94
2022-10-05T02:16:02.182Z,93.45
2022-10-05T02:17:02.563Z,93.25
2022-10-05T02:18:02.619Z,93.25
2022-10-05T02:19:02.451Z,92.83
2022-10-05T02:20:02.290Z,93.35
2022-10-05T02:21:02.734Z,93.76
2022-10-05T02:22:02.947Z,93.55
2022-10-05T02:23:02.787Z,93.96
2022-10-05T02:24:02.778Z,95.91
2022-10-05T02:25:03.051Z,95.70
2022-10-05T02:26:02.667Z,96.73
2022-10-05T02:27:02.216Z,97.45
2022-10-05T02:28:01.934Z,98.07
2022-10-05T02:29:02.109Z,98.53
2022-10-05T02:30:01.794Z,97.81
2022-10-05T02:31:02.232Z,97.81
2022-10-05T02:32:02.435Z,97.61
2022-10-05T02:33:02.110Z,98.22
2022-10-05T02:34:02.319Z,98.22
2022-10-05T02:35:02.161Z,98.63
2022-10-05T02:36:02.055Z,99.04
2022-10-05T02:37:02.597Z,98.63
2022-10-05T02:38:02.201Z,97.77
2022-10-05T02:39:02.771Z,99.04
2022-10-05T02:40:02.331Z,99.41
2022-10-05T02:41:02.640Z,99.91
2022-10-05T02:42:01.548Z,98.99
2022-10-05T02:43:01.787Z,98.90
2022-10-05T02:44:01.640Z,98.28
2022-10-05T02:45:01.560Z,99.10
2022-10-05T02:46:02.195Z,99.71
2022-10-05T02:47:02.083Z,98.13
2022-10-05T02:48:02.257Z,98.07
2022-10-05T02:49:02.684Z,97.97
2022-10-05T02:50:02.355Z,97.87
2022-10-05T02:51:02.726Z,97.00
2022-10-05T02:52:02.324Z,97.92
2022-10-05T02:53:02.932Z,98.99
2022-10-05T02:54:02.822Z,99.36
2022-10-05T02:55:02.693Z,99.46
2022-10-05T02:56:02.900Z,99.87
2022-10-05T02:57:02.221Z,99.46
2022-10-05T02:58:02.030Z,99.87
2022-10-05T02:59:02.353Z,99.46
2022-10-05T03:00:01.885Z,99.99
2022-10-05T03:01:01.974Z,99.15
2022-10-05T03:02:02.031Z,99.46
2022-10-05T03:03:01.858Z,98.95
2022-10-05T03:04:02.311Z,98.74
2022-10-05T03:05:02.215Z,98.74
2022-10-05T03:06:02.132Z,99.05
2022-10-05T03:07:02.128Z,99.26
2022-10-05T03:08:02.477Z,99.77
2022-10-05T03:09:02.383Z,99.01
2022-10-05T03:10:02.354Z,99.05
2022-10-05T03:11:02.296Z,98.13
2022-10-05T03:12:02.184Z,97.82
2022-10-05T03:13:02.522Z,97.52
2022-10-05T03:14:02.395Z,98.65
2022-10-05T03:15:02.743Z,99.46
2022-10-05T03:16:02.535Z,99.77
2022-10-05T03:17:02.512Z,99.93
2022-10-05T03:18:03.030Z,99.21
2022-10-05T03:19:02.594Z,98.70
2022-10-05T03:20:02.479Z,99.62
2022-10-05T03:21:02.507Z,99.99
2022-10-05T03:22:02.137Z,99.72
2022-10-05T03:23:02.270Z,99.82
2022-10-05T03:24:02.162Z,99.82
2022-10-05T03:25:02.595Z,98.90
2022-10-05T03:26:02.393Z,99.82
2022-10-05T03:27:02.174Z,99.21
2022-10-05T03:28:02.362Z,99.41
2022-10-05T03:29:02.750Z,99.01
2022-10-05T03:30:02.795Z,98.39
2022-10-05T03:31:02.428Z,99.31
2022-10-05T03:32:02.650Z,99.99
2022-10-05T03:33:02.646Z,99.93
2022-10-05T03:34:02.921Z,98.60
2022-10-05T03:35:02.770Z,99.31
2022-10-05T03:36:02.627Z,99.93
2022-10-05T03:37:02.523Z,99.41
2022-10-05T03:38:02.495Z,99.52
2022-10-05T03:39:02.351Z,99.21
2022-10-05T03:40:02.050Z,98.90
2022-10-05T03:41:02.193Z,98.39
2022-10-05T03:42:03.210Z,98.80
2022-10-05T03:43:02.884Z,97.98
2022-10-05T03:44:02.576Z,99.11
2022-10-05T03:45:03.227Z,98.70
2022-10-05T03:46:02.615Z,99.11
2022-10-05T03:47:02.150Z,98.35
2022-10-05T03:48:02.386Z,98.35
2022-10-05T03:49:02.566Z,98.45
2022-10-05T03:50:02.332Z,97.42
2022-10-05T03:51:02.220Z,97.53
2022-10-05T03:52:02.774Z,96.61
2022-10-05T03:53:02.674Z,98.49
2022-10-05T03:54:02.537Z,98.45
2022-10-05T03:55:02.745Z,98.86
2022-10-05T03:56:03.447Z,98.14
2022-10-05T03:57:02.156Z,98.24
2022-10-05T03:58:01.914Z,98.29
2022-10-05T03:59:02.360Z,97.42
2022-10-05T04:00:01.851Z,96.81
2022-10-05T04:01:02.436Z,97.98
2022-10-05T04:02:02.761Z,98.29
2022-10-05T04:03:02.686Z,97.27
2022-10-05T04:04:02.765Z,97.06
2022-10-05T04:05:02.657Z,96.86
2022-10-05T04:06:02.583Z,96.34
2022-10-05T04:07:02.201Z,96.96
2022-10-05T04:08:02.452Z,96.66
2022-10-05T04:09:02.230Z,96.25
2022-10-05T04:10:02.107Z,95.84
2022-10-05T04:11:01.968Z,95.94
2022-10-05T04:12:02.513Z,95.94
2022-10-05T04:13:02.478Z,96.86
2022-10-05T04:14:02.762Z,97.78
2022-10-05T04:15:02.723Z,97.98
2022-10-05T04:16:02.671Z,97.16
2022-10-05T04:17:02.110Z,96.96
2022-10-05T04:18:01.911Z,96.75
2022-10-05T04:19:01.872Z,96.45
2022-10-05T04:20:02.343Z,97.16
2022-10-05T04:21:02.010Z,96.45
2022-10-05T04:22:02.477Z,97.37
2022-10-05T04:23:02.001Z,96.96
2022-10-05T04:24:01.976Z,96.86
2022-10-05T04:25:02.510Z,97.78
2022-10-05T04:26:02.300Z,97.37
2022-10-05T04:27:02.492Z,97.27
2022-10-05T04:28:02.368Z,97.88
2022-10-05T04:29:02.590Z,97.37
2022-10-05T04:30:02.183Z,96.86
2022-10-05T04:31:02.746Z,97.06
2022-10-05T04:32:02.218Z,96.86
2022-10-05T04:33:02.048Z,96.45
2022-10-05T04:34:01.895Z,95.84
2022-10-05T04:35:01.739Z,95.63
2022-10-05T04:36:01.836Z,95.43
2022-10-05T04:37:02.516Z,95.53
2022-10-05T04:38:02.436Z,95.63
2022-10-05T04:39:02.372Z,95.02
2022-10-05T04:40:02.305Z,94.71
2022-10-05T04:41:02.188Z,94.81
2022-10-05T04:42:02.655Z,95.43
2022-10-05T04:43:02.544Z,95.12
2022-10-05T04:44:02.464Z,95.12
2022-10-05T04:45:02.371Z,94.92
2022-10-05T04:46:02.122Z,96.04
2022-10-05T04:47:02.603Z,96.14
2022-10-05T04:48:02.559Z,96.96
2022-10-05T04:49:02.270Z,98.08
2022-10-05T04:50:02.408Z,97.98
2022-10-05T04:51:02.367Z,97.37
2022-10-05T04:52:01.984Z,97.88
2022-10-05T04:53:01.946Z,98.19
2022-10-05T04:54:01.797Z,98.29
2022-10-05T04:55:02.257Z,97.47
2022-10-05T04:56:01.768Z,96.96
2022-10-05T04:57:02.555Z,97.47
2022-10-05T04:58:02.249Z,97.98
2022-10-05T04:59:02.080Z,97.67
2022-10-05T05:00:02.275Z,98.39
2022-10-05T05:01:02.418Z,98.19
2022-10-05T05:02:02.870Z,98.49
2022-10-05T05:03:02.806Z,97.37
2022-10-05T05:04:02.650Z,96.75
2022-10-05T05:05:02.492Z,97.41
2022-10-05T05:06:16.996Z,97.27
2022-10-05T05:07:02.574Z,96.55
2022-10-05T05:08:02.255Z,96.34
2022-10-05T05:09:02.190Z,97.47
2022-10-05T05:10:02.370Z,97.27
2022-10-05T05:11:02.288Z,96.25
2022-10-05T05:12:01.560Z,96.75
2022-10-05T05:13:02.118Z,96.75
2022-10-05T05:14:01.694Z,97.16
2022-10-05T05:15:01.657Z,98.19
2022-10-05T05:16:01.976Z,98.08
2022-10-05T05:17:02.517Z,98.29
2022-10-05T05:18:02.007Z,97.37
2022-10-05T05:19:02.168Z,98.39
2022-10-05T05:20:01.998Z,98.08
2022-10-05T05:21:02.551Z,98.19
2022-10-05T05:22:02.454Z,97.67
2022-10-05T05:23:02.834Z,97.47
2022-10-05T05:24:02.290Z,97.88
2022-10-05T05:25:02.706Z,97.27
2022-10-05T05:26:02.671Z,96.96
2022-10-05T05:27:02.007Z,96.86
2022-10-05T05:28:02.044Z,97.98
2022-10-05T05:29:02.086Z,97.67
2022-10-05T05:30:01.674Z,98.08
2022-10-05T05:31:02.344Z,98.19
2022-10-05T05:32:02.170Z,98.90
2022-10-05T05:33:01.997Z,98.80
2022-10-05T05:34:02.008Z,99.01
2022-10-05T05:35:02.517Z,99.11
2022-10-05T05:36:02.647Z,99.62
2022-10-05T05:37:02.366Z,99.11
2022-10-05T05:38:02.910Z,99.01
2022-10-05T05:39:02.473Z,99.31
2022-10-05T05:40:02.407Z,99.31
2022-10-05T05:41:02.974Z,99.21
2022-10-05T05:42:01.637Z,99.62
2022-10-05T05:43:01.657Z,98.60
2022-10-05T05:44:02.205Z,98.08
2022-10-05T05:45:02.198Z,98.29
2022-10-05T05:46:02.196Z,98.90
2022-10-05T05:47:04.491Z,99.11
2022-10-05T05:48:02.362Z,99.72
2022-10-05T05:49:01.882Z,98.35
2022-10-05T05:50:07.097Z,98.35
2022-10-05T05:51:02.139Z,97.63
2022-10-05T05:52:02.085Z,98.65
2022-10-05T05:53:02.303Z,98.24
2022-10-05T05:54:02.365Z,97.42
2022-10-05T05:55:02.361Z,97.22
2022-10-05T05:56:02.089Z,97.63
2022-10-05T05:57:01.919Z,97.63
2022-10-05T05:58:02.023Z,97.63
2022-10-05T05:59:01.936Z,97.22
2022-10-05T06:00:01.763Z,98.35
2022-10-05T06:01:01.847Z,97.53
2022-10-05T06:02:02.003Z,98.14
2022-10-05T06:03:01.909Z,97.53
2022-10-05T06:04:02.079Z,98.35
2022-10-05T06:05:02.076Z,99.16
2022-10-05T06:06:01.873Z,99.16
2022-10-05T06:07:02.164Z,99.32
2022-10-05T06:08:02.374Z,98.81
2022-10-05T06:09:02.346Z,99.43
2022-10-05T06:10:02.369Z,99.73
2022-10-05T06:11:02.398Z,99.63
2022-10-05T06:12:01.502Z,99.84
2022-10-05T06:13:01.952Z,98.91
2022-10-05T06:14:01.511Z,99.43
2022-10-05T06:15:01.698Z,98.66
2022-10-05T06:16:01.759Z,98.86
2022-10-05T06:17:02.420Z,99.07
2022-10-05T06:18:02.568Z,99.18
2022-10-05T06:19:02.361Z,98.77
2022-10-05T06:20:05.235Z,98.66
2022-10-05T06:21:02.400Z,98.56
2022-10-05T06:22:01.866Z,98.66
2022-10-05T06:23:01.802Z,98.41
2022-10-05T06:24:02.072Z,98.61
2022-10-05T06:25:01.943Z,98.41
2022-10-05T06:26:01.891Z,98.41
2022-10-05T06:27:02.853Z,98.82
2022-10-05T06:28:02.981Z,99.33
2022-10-05T06:29:02.831Z,98.72
2022-10-05T06:30:02.844Z,98.52
2022-10-05T06:31:02.881Z,98.93
2022-10-05T06:32:02.756Z,98.77
2022-10-05T06:33:02.712Z,99.39
2022-10-05T06:34:02.818Z,99.29
2022-10-05T06:35:02.488Z,98.68
2022-10-05T06:36:02.388Z,98.47
2022-10-05T06:37:02.336Z,98.36
2022-10-05T06:38:01.986Z,98.36
2022-10-05T06:39:02.603Z,98.11
2022-10-05T06:40:02.340Z,98.11
2022-10-05T06:41:02.252Z,98.32
2022-10-05T06:42:02.021Z,98.22
2022-10-05T06:43:01.782Z,98.02
2022-10-05T06:44:01.873Z,98.22
2022-10-05T06:45:01.876Z,98.11
2022-10-05T06:46:01.891Z,97.97
2022-10-05T06:47:02.207Z,97.97
2022-10-05T06:48:05.318Z,97.97
2022-10-05T06:49:02.156Z,98.18
2022-10-05T06:50:02.125Z,98.07
2022-10-05T06:51:02.068Z,98.27
2022-10-05T06:52:02.349Z,98.27
2022-10-05T06:53:02.374Z,98.38
2022-10-05T06:54:02.456Z,98.18
2022-10-05T06:55:02.232Z,98.18
2022-10-05T06:56:01.973Z,98.79
2022-10-05T06:57:02.627Z,98.79
2022-10-05T06:58:02.601Z,98.84
2022-10-05T06:59:02.666Z,99.04
2022-10-05T07:00:02.584Z,98.84
2022-10-05T07:01:02.697Z,98.64
2022-10-05T07:02:02.161Z,98.43
2022-10-05T07:03:01.680Z,98.43
2022-10-05T07:04:01.761Z,98.28
2022-10-05T07:05:01.688Z,98.18
2022-10-05T07:06:01.956Z,97.98
2022-10-05T07:07:02.703Z,98.18
2022-10-05T07:08:02.631Z,98.59
2022-10-05T07:09:02.556Z,98.39
2022-10-05T07:10:02.375Z,98.49
2022-10-05T07:11:02.372Z,98.39
2022-10-05T07:12:05.161Z,98.24
2022-10-05T07:13:02.164Z,97.93
2022-10-05T07:14:02.079Z,98.14
2022-10-05T07:15:02.186Z,98.24
2022-10-05T07:16:02.293Z,98.14
2022-10-05T07:17:02.540Z,98.44
2022-10-05T07:18:01.945Z,98.34
2022-10-05T07:19:01.899Z,98.34
2022-10-05T07:20:01.924Z,98.39
2022-10-05T07:21:01.972Z,98.39
2022-10-05T07:22:02.727Z,98.70
2022-10-05T07:23:02.557Z,98.70
2022-10-05T07:24:02.160Z,98.70
2022-10-05T07:25:02.222Z,98.91
2022-10-05T07:26:02.440Z,98.80
2022-10-05T07:27:02.192Z,98.70
2022-10-05T07:28:02.136Z,98.60
2022-10-05T07:29:02.053Z,98.66
2022-10-05T07:30:02.096Z,98.55
2022-10-05T07:31:02.043Z,98.45
2022-10-05T07:32:02.836Z,98.35
2022-10-05T07:33:02.634Z,98.55
2022-10-05T07:34:02.598Z,98.66
2022-10-05T07:35:02.674Z,98.45
2022-10-05T07:36:02.719Z,98.20
2022-10-05T07:37:02.559Z,98.10
2022-10-05T07:38:02.193Z,98.20
2022-10-05T07:39:02.153Z,98.41
2022-10-05T07:40:02.197Z,98.30
2022-10-05T07:41:02.375Z,98.20
2022-10-05T07:42:03.131Z,98.30
2022-10-05T07:43:02.909Z,98.41
2022-10-05T07:44:03.796Z,98.30
2022-10-05T07:45:02.864Z,98.30
2022-10-05T07:46:03.009Z,98.26
2022-10-05T07:47:02.776Z,98.05
2022-10-05T07:48:02.574Z,97.85
2022-10-05T07:49:02.625Z,97.75
2022-10-05T07:50:02.629Z,97.65
2022-10-05T07:51:02.515Z,97.55
2022-10-05T07:52:03.095Z,97.50
2022-10-05T07:53:02.560Z,97.40
2022-10-05T07:54:03.073Z,96.89
2022-10-05T07:55:02.936Z,96.89
2022-10-05T07:56:03.039Z,96.79
2022-10-05T07:57:01.912Z,96.89
2022-10-05T07:58:01.951Z,96.99
2022-10-05T07:59:01.903Z,96.84
2022-10-05T08:00:02.364Z,96.75
2022-10-05T08:01:02.314Z,96.75
2022-10-05T08:02:02.429Z,96.95
2022-10-05T08:03:02.517Z,97.05
2022-10-05T08:04:02.573Z,96.95
2022-10-05T08:05:02.649Z,96.75
2022-10-05T08:06:02.748Z,96.80
2022-10-05T08:07:02.823Z,96.90
2022-10-05T08:08:02.985Z,96.70
2022-10-05T08:09:02.813Z,96.90
2022-10-05T08:10:03.428Z,96.90
2022-10-05T08:11:03.178Z,96.75
2022-10-05T08:12:02.391Z,96.96
2022-10-05T08:13:02.631Z,96.55
2022-10-05T08:14:02.651Z,96.86
2022-10-05T08:15:02.851Z,96.55
2022-10-05T08:16:02.847Z,96.30
2022-10-05T08:17:03.025Z,96.20
2022-10-05T08:18:03.117Z,96.30
2022-10-05T08:19:03.035Z,96.41
2022-10-05T08:20:03.496Z,96.10
2022-10-05T08:21:03.507Z,95.70
2022-10-05T08:22:02.359Z,95.59
2022-10-05T08:23:02.461Z,95.50
2022-10-05T08:24:02.623Z,95.79
2022-10-05T08:25:02.504Z,95.19
2022-10-05T08:26:02.559Z,95.59
2022-10-05T08:27:02.867Z,95.65
2022-10-05T08:28:03.091Z,95.95
2022-10-05T08:29:03.197Z,95.75
2022-10-05T08:30:03.099Z,95.55
2022-10-05T08:31:03.258Z,95.55
2022-10-05T08:32:02.459Z,95.25
2022-10-05T08:33:02.495Z,95.25
2022-10-05T08:34:02.602Z,95.35
2022-10-05T08:35:02.616Z,95.55
2022-10-05T08:36:02.800Z,95.25
2022-10-05T08:37:02.757Z,95.55
2022-10-05T08:38:02.665Z,95.55
2022-10-05T08:39:02.743Z,95.20
2022-10-05T08:40:03.350Z,94.59
2022-10-05T08:41:03.292Z,94.90
2022-10-05T08:42:03.025Z,95.00
2022-10-05T08:43:03.115Z,95.10
2022-10-05T08:44:03.372Z,95.10
2022-10-05T08:45:03.331Z,94.95
2022-10-05T08:46:03.393Z,94.85
2022-10-05T08:47:03.243Z,94.75
2022-10-05T08:48:03.334Z,94.55
2022-10-05T08:49:03.384Z,94.55
2022-10-05T08:50:03.242Z,94.75
2022-10-05T08:51:03.227Z,94.75
2022-10-05T08:52:03.266Z,93.94
2022-10-05T08:53:03.368Z,94.24
2022-10-05T08:54:03.461Z,94.35
2022-10-05T08:55:03.560Z,94.60
2022-10-05T08:56:04.558Z,94.50
2022-10-05T08:57:02.673Z,94.50
2022-10-05T08:58:02.764Z,94.40
2022-10-05T08:59:02.835Z,94.26
2022-10-05T09:00:02.889Z,94.36
2022-10-05T09:01:02.997Z,93.95
2022-10-05T09:02:01.737Z,93.85
2022-10-05T09:03:02.044Z,93.55
2022-10-05T09:04:02.143Z,93.44
2022-10-05T09:05:02.229Z,93.30
2022-10-05T09:06:02.322Z,93.40
2022-10-05T09:07:02.171Z,93.30
2022-10-05T09:08:02.260Z,93.00
2022-10-05T09:09:02.312Z,92.29
2022-10-05T09:10:02.361Z,92.69
2022-10-05T09:11:02.404Z,92.80
2022-10-05T09:12:02.380Z,92.90
2022-10-05T09:13:02.611Z,92.29
2022-10-05T09:14:02.616Z,92.65
2022-10-05T09:15:24.169Z,92.85
2022-10-05T09:16:02.652Z,92.45
2022-10-05T09:17:02.097Z,92.55
2022-10-05T09:18:02.169Z,92.65
2022-10-05T09:19:02.192Z,91.70
2022-10-05T09:20:02.019Z,92.10
2022-10-05T09:21:01.995Z,91.30
2022-10-05T09:22:02.726Z,91.39
2022-10-05T09:23:02.963Z,91.39
2022-10-05T09:24:02.732Z,91.50
2022-10-05T09:25:02.641Z,90.85
2022-10-05T09:26:02.548Z,90.24
2022-10-05T09:27:02.976Z,90.24
2022-10-05T09:28:03.201Z,89.84
2022-10-05T09:29:02.938Z,89.74
2022-10-05T09:30:03.008Z,90.24
2022-10-05T09:31:03.148Z,89.79
2022-10-05T09:32:02.553Z,90.30
2022-10-05T09:33:02.566Z,90.00
2022-10-05T09:34:02.494Z,90.61
2022-10-05T09:35:02.604Z,91.37
2022-10-05T09:36:02.834Z,90.26
2022-10-05T09:37:02.626Z,88.54
2022-10-05T09:38:02.617Z,88.65
2022-10-05T09:39:02.615Z,89.15
2022-10-05T09:40:02.534Z,89.41
2022-10-05T09:41:02.501Z,89.21
2022-10-05T09:42:03.050Z,90.01
2022-10-05T09:43:03.133Z,90.37
2022-10-05T09:44:03.226Z,90.58
2022-10-05T09:45:03.184Z,89.97
2022-10-05T09:46:03.220Z,89.93
2022-10-05T09:47:02.798Z,89.32
2022-10-05T09:48:02.371Z,89.93
2022-10-05T09:49:02.417Z,89.59
2022-10-05T09:50:02.463Z,88.68
2022-10-05T09:51:02.343Z,88.48
2022-10-05T09:52:02.366Z,88.34
2022-10-05T09:53:02.401Z,89.04
2022-10-05T09:54:02.490Z,88.13
2022-10-05T09:55:02.189Z,87.93
2022-10-05T09:56:01.841Z,86.08
2022-10-05T09:57:02.587Z,85.98
2022-10-05T09:58:02.610Z,86.88
2022-10-05T09:59:02.655Z,87.08
2022-10-05T10:00:02.720Z,87.59
2022-10-05T10:01:09.662Z,87.65
2022-10-05T10:02:02.940Z,86.34
2022-10-05T10:03:03.140Z,87.04
2022-10-05T10:04:03.005Z,86.50
2022-10-05T10:05:02.896Z,83.59
2022-10-05T10:06:02.908Z,84.29
2022-10-05T10:07:02.612Z,84.19
2022-10-05T10:08:02.644Z,84.49
2022-10-05T10:09:02.339Z,84.09
2022-10-05T10:10:02.377Z,83.39
2022-10-05T10:11:02.337Z,82.89
2022-10-05T10:12:02.189Z,83.75
2022-10-05T10:13:01.975Z,83.75
2022-10-05T10:14:01.817Z,85.05
2022-10-05T10:15:03.148Z,83.11
2022-10-05T10:16:02.151Z,82.00
2022-10-05T10:17:02.623Z,84.21
2022-10-05T10:18:02.388Z,81.90
2022-10-05T10:19:02.384Z,81.80
2022-10-05T10:20:02.302Z,82.90
2022-10-05T10:21:02.558Z,83.07
2022-10-05T10:22:01.538Z,82.57
2022-10-05T10:23:01.581Z,82.97
2022-10-05T10:24:02.271Z,82.17
2022-10-05T10:25:02.014Z,82.93
2022-10-05T10:26:02.024Z,82.23
2022-10-05T10:27:01.606Z,82.73
2022-10-05T10:28:01.742Z,82.73
2022-10-05T10:29:01.920Z,83.23
2022-10-05T10:30:01.987Z,82.69
2022-10-05T10:31:01.910Z,82.18
2022-10-05T10:32:01.920Z,82.49
2022-10-05T10:33:02.602Z,80.15
2022-10-05T10:34:02.237Z,81.55
2022-10-05T10:35:02.426Z,78.84
2022-10-05T10:36:06.025Z,79.04
2022-10-05T10:37:02.259Z,80.35
2022-10-05T10:38:02.857Z,79.80
2022-10-05T10:39:02.488Z,80.11
2022-10-05T10:40:02.528Z,81.11
2022-10-05T10:41:02.477Z,81.17
2022-10-05T10:42:02.572Z,80.97
2022-10-05T10:43:03.255Z,80.07
2022-10-05T10:44:02.976Z,80.07
2022-10-05T10:45:03.021Z,79.63
2022-10-05T10:46:03.067Z,77.53
2022-10-05T10:47:03.154Z,77.73
2022-10-05T10:48:02.746Z,75.23
2022-10-05T10:49:02.511Z,75.33
2022-10-05T10:50:02.552Z,75.13
2022-10-05T10:51:02.580Z,76.73
2022-10-05T10:52:02.511Z,75.93
2022-10-05T10:53:02.311Z,77.29
2022-10-05T10:54:01.955Z,77.39
2022-10-05T10:55:01.712Z,75.09
2022-10-05T10:56:01.920Z,74.49
2022-10-05T10:57:01.792Z,75.79
2022-10-05T10:58:02.541Z,75.19
2022-10-05T10:59:02.609Z,76.56
2022-10-05T11:00:02.563Z,75.56
2022-10-05T11:01:02.694Z,74.46
2022-10-05T11:02:02.725Z,74.96
2022-10-05T11:03:02.667Z,75.16
2022-10-05T11:04:02.803Z,72.92
2022-10-05T11:05:02.658Z,72.62
2022-10-05T11:06:02.530Z,74.22
2022-10-05T11:07:02.538Z,72.32
2022-10-05T11:08:03.440Z,74.22
2022-10-05T11:09:02.911Z,74.42
2022-10-05T11:10:02.926Z,73.88
2022-10-05T11:11:03.504Z,73.79
2022-10-05T11:12:03.555Z,74.29
2022-10-05T11:13:03.328Z,74.29
2022-10-05T11:14:03.566Z,74.85
2022-10-05T11:15:03.545Z,71.66
2022-10-05T11:16:03.697Z,72.55
2022-10-05T11:17:03.552Z,72.25
2022-10-05T11:18:03.559Z,71.06
2022-10-05T11:19:03.599Z,70.65
2022-10-05T11:20:04.684Z,71.15
2022-10-05T11:21:03.449Z,72.75
2022-10-05T11:22:03.454Z,72.16
2022-10-05T11:23:03.098Z,70.46
2022-10-05T11:24:03.127Z,70.06
2022-10-05T11:25:03.167Z,71.92
2022-10-05T11:26:03.046Z,70.92
2022-10-05T11:27:02.935Z,69.53
2022-10-05T11:28:03.809Z,69.53
2022-10-05T11:29:03.555Z,70.03
2022-10-05T11:30:03.444Z,72.42
2022-10-05T11:31:03.531Z,73.68
2022-10-05T11:32:03.377Z,73.88
2022-10-05T11:33:02.777Z,68.90
2022-10-05T11:34:03.184Z,66.90
2022-10-05T11:35:03.194Z,67.10
2022-10-05T11:36:03.290Z,68.30
2022-10-05T11:37:03.302Z,68.79
2022-10-05T11:38:03.415Z,69.89
2022-10-05T11:39:03.461Z,69.16
2022-10-05T11:40:03.468Z,67.60
2022-10-05T11:41:03.791Z,67.66
2022-10-05T11:42:03.788Z,67.20
2022-10-05T11:43:03.725Z,65.70
2022-10-05T11:44:06.320Z,66.30
2022-10-05T11:45:03.903Z,68.49
2022-10-05T11:46:03.804Z,68.19
2022-10-05T11:47:03.847Z,68.56
2022-10-05T11:48:03.491Z,67.20
2022-10-05T11:49:03.594Z,66.97
2022-10-05T11:50:03.608Z,66.70
2022-10-05T11:51:03.582Z,67.10
2022-10-05T11:52:03.459Z,66.70
2022-10-05T11:53:03.148Z,67.36
2022-10-05T11:54:03.139Z,65.97
2022-10-05T11:55:10.850Z,66.37
2022-10-05T11:56:03.073Z,66.27
2022-10-05T11:57:03.093Z,67.07
2022-10-05T11:58:03.762Z,66.57
2022-10-05T11:59:03.774Z,64.97
2022-10-05T12:00:03.762Z,65.41
2022-10-05T12:01:03.792Z,68.26
2022-10-05T12:02:03.667Z,65.37
2022-10-05T12:03:02.508Z,65.37
2022-10-05T12:04:02.561Z,65.37
2022-10-05T12:05:02.293Z,66.17
2022-10-05T12:06:02.273Z,68.07
2022-10-05T12:07:02.318Z,66.77
2022-10-05T12:08:03.073Z,66.77
2022-10-05T12:09:02.865Z,66.14
2022-10-05T12:10:02.803Z,66.44
2022-10-05T12:11:02.833Z,66.64
2022-10-05T12:12:02.829Z,65.05
2022-10-05T12:13:02.482Z,64.45
2022-10-05T12:14:02.534Z,64.75
2022-10-05T12:15:02.086Z,64.64
2022-10-05T12:16:02.648Z,65.84
2022-10-05T12:17:01.948Z,64.51
2022-10-05T12:18:02.662Z,65.41
2022-10-05T12:19:02.303Z,66.80
2022-10-05T12:20:02.331Z,67.60
2022-10-05T12:21:02.613Z,67.50
2022-10-05T12:22:02.387Z,68.07
2022-10-05T12:23:02.483Z,68.76
2022-10-05T12:24:03.110Z,68.27
2022-10-05T12:25:02.804Z,67.33
2022-10-05T12:26:02.692Z,67.83
2022-10-05T12:27:02.638Z,65.91
2022-10-05T12:28:02.404Z,64.92
2022-10-05T12:29:02.133Z,66.21
2022-10-05T12:30:02.277Z,66.21
2022-10-05T12:31:02.112Z,65.88
2022-10-05T12:32:01.984Z,64.00
2022-10-05T12:33:02.517Z,64.29
2022-10-05T12:34:02.321Z,62.40
2022-10-05T12:35:02.385Z,62.40
2022-10-05T12:36:02.514Z,63.49
2022-10-05T12:37:04.813Z,62.01
2022-10-05T12:38:03.140Z,61.80
2022-10-05T12:39:02.844Z,61.61
2022-10-05T12:40:02.740Z,62.01
2022-10-05T12:41:02.756Z,60.91
2022-10-05T12:42:02.680Z,62.40
2022-10-05T12:43:01.783Z,60.61
2022-10-05T12:44:02.150Z,59.82
2022-10-05T12:45:01.833Z,61.64
2022-10-05T12:46:02.095Z,60.14
2022-10-05T12:47:02.340Z,60.55
2022-10-05T12:48:02.055Z,60.74
2022-10-05T12:49:02.642Z,61.74
2022-10-05T12:50:02.592Z,61.74
2022-10-05T12:51:02.719Z,61.14
2022-10-05T12:52:02.319Z,62.04